sensor_id;sensor_type;location;lat;lon;timestamp;P1;durP1;ratioP1;P2;durP2;ratioP2
66559;SDS011;53413;49.878;8.142;2024-03-02T00:01:48;20.67;;;7.93;;
66559;SDS011;53413;49.878;8.142;2024-03-02T00:04:13;20.07;;;7.93;;
66559;SDS011;53413;49.878;8.142;2024-03-02T00:06:38;19.90;;;7.70;;
66559;SDS011;53413;49.878;8.142;2024-03-02T00:09:04;19.70;;;7.63;;
66559;SDS011;53413;49.878;8.142;2024-03-02T00:11:29;22.43;;;8.17;;
66559;SDS011;53413;49.878;8.142;2024-03-02T00:13:54;21.90;;;7.77;;
66559;SDS011;53413;49.878;8.142;2024-03-02T00:16:20;18.90;;;7.63;;
66559;SDS011;53413;49.878;8.142;2024-03-02T00:18:45;21.55;;;7.32;;
66559;SDS011;53413;49.878;8.142;2024-03-02T00:21:11;20.30;;;7.27;;
66559;SDS011;53413;49.878;8.142;2024-03-02T00:23:39;21.85;;;7.22;;
66559;SDS011;53413;49.878;8.142;2024-03-02T00:26:05;19.17;;;7.53;;
66559;SDS011;53413;49.878;8.142;2024-03-02T00:28:34;21.60;;;7.70;;
66559;SDS011;53413;49.878;8.142;2024-03-02T00:33:33;18.27;;;7.20;;
66559;SDS011;53413;49.878;8.142;2024-03-02T00:36:05;18.90;;;7.45;;
66559;SDS011;53413;49.878;8.142;2024-03-02T00:38:31;22.92;;;8.95;;
66559;SDS011;53413;49.878;8.142;2024-03-02T00:40:59;22.27;;;7.77;;
66559;SDS011;53413;49.878;8.142;2024-03-02T00:46:40;21.10;;;7.90;;
66559;SDS011;53413;49.878;8.142;2024-03-02T00:49:20;23.10;;;8.45;;
66559;SDS011;53413;49.878;8.142;2024-03-02T00:51:48;22.60;;;8.30;;
66559;SDS011;53413;49.878;8.142;2024-03-02T00:54:15;24.10;;;8.63;;
66559;SDS011;53413;49.878;8.142;2024-03-02T00:56:44;25.33;;;8.98;;
66559;SDS011;53413;49.878;8.142;2024-03-02T00:59:10;24.00;;;9.10;;
66559;SDS011;53413;49.878;8.142;2024-03-02T01:01:35;20.83;;;8.07;;
66559;SDS011;53413;49.878;8.142;2024-03-02T01:04:01;20.73;;;8.03;;
66559;SDS011;53413;49.878;8.142;2024-03-02T01:06:26;22.93;;;8.20;;
66559;SDS011;53413;49.878;8.142;2024-03-02T01:08:51;23.92;;;8.65;;
66559;SDS011;53413;49.878;8.142;2024-03-02T01:11:17;27.23;;;9.70;;
66559;SDS011;53413;49.878;8.142;2024-03-02T01:13:43;24.83;;;9.10;;
66559;SDS011;53413;49.878;8.142;2024-03-02T01:16:09;23.17;;;8.83;;
66559;SDS011;53413;49.878;8.142;2024-03-02T01:18:35;26.58;;;9.73;;
66559;SDS011;53413;49.878;8.142;2024-03-02T01:21:00;27.05;;;9.68;;
66559;SDS011;53413;49.878;8.142;2024-03-02T01:23:26;28.13;;;9.97;;
66559;SDS011;53413;49.878;8.142;2024-03-02T01:25:51;25.08;;;9.45;;
66559;SDS011;53413;49.878;8.142;2024-03-02T01:28:17;24.70;;;9.13;;
66559;SDS011;53413;49.878;8.142;2024-03-02T01:30:44;28.05;;;10.35;;
66559;SDS011;53413;49.878;8.142;2024-03-02T01:33:09;26.73;;;9.93;;
66559;SDS011;53413;49.878;8.142;2024-03-02T01:35:35;30.38;;;10.40;;
66559;SDS011;53413;49.878;8.142;2024-03-02T01:38:00;29.23;;;9.77;;
66559;SDS011;53413;49.878;8.142;2024-03-02T01:40:26;30.73;;;10.10;;
66559;SDS011;53413;49.878;8.142;2024-03-02T01:42:52;25.35;;;9.88;;
66559;SDS011;53413;49.878;8.142;2024-03-02T01:45:23;26.98;;;9.50;;
66559;SDS011;53413;49.878;8.142;2024-03-02T01:47:48;25.43;;;9.03;;
66559;SDS011;53413;49.878;8.142;2024-03-02T01:50:14;22.67;;;8.90;;
66559;SDS011;53413;49.878;8.142;2024-03-02T01:52:40;22.00;;;7.82;;
66559;SDS011;53413;49.878;8.142;2024-03-02T01:55:05;26.43;;;9.97;;
66559;SDS011;53413;49.878;8.142;2024-03-02T01:57:31;25.67;;;9.55;;
66559;SDS011;53413;49.878;8.142;2024-03-02T01:59:57;25.95;;;9.70;;
66559;SDS011;53413;49.878;8.142;2024-03-02T02:02:22;27.10;;;9.53;;
66559;SDS011;53413;49.878;8.142;2024-03-02T02:04:48;24.30;;;9.47;;
66559;SDS011;53413;49.878;8.142;2024-03-02T02:07:13;26.07;;;9.67;;
66559;SDS011;53413;49.878;8.142;2024-03-02T02:09:40;28.25;;;9.80;;
66559;SDS011;53413;49.878;8.142;2024-03-02T02:12:11;25.93;;;9.77;;
66559;SDS011;53413;49.878;8.142;2024-03-02T02:14:36;27.15;;;9.73;;
66559;SDS011;53413;49.878;8.142;2024-03-02T02:17:02;27.75;;;9.88;;
66559;SDS011;53413;49.878;8.142;2024-03-02T02:19:27;29.58;;;9.60;;
66559;SDS011;53413;49.878;8.142;2024-03-02T02:21:53;27.20;;;9.67;;
66559;SDS011;53413;49.878;8.142;2024-03-02T02:24:19;30.60;;;10.70;;
66559;SDS011;53413;49.878;8.142;2024-03-02T02:26:44;33.13;;;10.68;;
66559;SDS011;53413;49.878;8.142;2024-03-02T02:29:09;34.47;;;10.67;;
66559;SDS011;53413;49.878;8.142;2024-03-02T02:31:38;28.63;;;10.57;;
66559;SDS011;53413;49.878;8.142;2024-03-02T02:34:04;30.27;;;11.65;;
66559;SDS011;53413;49.878;8.142;2024-03-02T02:36:30;31.60;;;11.23;;
66559;SDS011;53413;49.878;8.142;2024-03-02T02:38:56;30.00;;;10.73;;
66559;SDS011;53413;49.878;8.142;2024-03-02T02:41:22;27.10;;;10.00;;
66559;SDS011;53413;49.878;8.142;2024-03-02T02:43:47;29.77;;;10.87;;
66559;SDS011;53413;49.878;8.142;2024-03-02T02:46:13;26.95;;;10.35;;
66559;SDS011;53413;49.878;8.142;2024-03-02T02:48:38;27.90;;;10.17;;
66559;SDS011;53413;49.878;8.142;2024-03-02T02:51:03;26.23;;;9.37;;
66559;SDS011;53413;49.878;8.142;2024-03-02T02:53:29;31.10;;;10.30;;
66559;SDS011;53413;49.878;8.142;2024-03-02T02:55:54;25.47;;;9.90;;
66559;SDS011;53413;49.878;8.142;2024-03-02T02:58:19;27.97;;;10.17;;
66559;SDS011;53413;49.878;8.142;2024-03-02T03:00:45;28.65;;;10.40;;
66559;SDS011;53413;49.878;8.142;2024-03-02T03:03:10;26.30;;;9.60;;
66559;SDS011;53413;49.878;8.142;2024-03-02T03:05:35;25.73;;;10.43;;
66559;SDS011;53413;49.878;8.142;2024-03-02T03:08:01;26.90;;;9.80;;
66559;SDS011;53413;49.878;8.142;2024-03-02T03:10:26;27.27;;;10.17;;
66559;SDS011;53413;49.878;8.142;2024-03-02T03:12:52;23.90;;;9.30;;
66559;SDS011;53413;49.878;8.142;2024-03-02T03:15:18;25.07;;;10.20;;
66559;SDS011;53413;49.878;8.142;2024-03-02T03:17:43;26.37;;;9.53;;
66559;SDS011;53413;49.878;8.142;2024-03-02T03:20:09;29.40;;;10.23;;
66559;SDS011;53413;49.878;8.142;2024-03-02T03:22:36;25.17;;;9.00;;
66559;SDS011;53413;49.878;8.142;2024-03-02T03:25:02;26.08;;;9.68;;
66559;SDS011;53413;49.878;8.142;2024-03-02T03:27:28;22.50;;;9.10;;
66559;SDS011;53413;49.878;8.142;2024-03-02T03:29:53;27.17;;;9.57;;
66559;SDS011;53413;49.878;8.142;2024-03-02T03:32:19;24.48;;;9.70;;
66559;SDS011;53413;49.878;8.142;2024-03-02T03:34:44;27.40;;;10.37;;
66559;SDS011;53413;49.878;8.142;2024-03-02T03:37:10;27.50;;;9.63;;
66559;SDS011;53413;49.878;8.142;2024-03-02T03:39:35;24.00;;;8.63;;
66559;SDS011;53413;49.878;8.142;2024-03-02T03:42:01;26.33;;;9.83;;
66559;SDS011;53413;49.878;8.142;2024-03-02T03:44:26;29.90;;;10.77;;
66559;SDS011;53413;49.878;8.142;2024-03-02T03:46:51;28.50;;;10.13;;
66559;SDS011;53413;49.878;8.142;2024-03-02T03:49:17;24.90;;;9.52;;
66559;SDS011;53413;49.878;8.142;2024-03-02T03:51:43;18.17;;;6.50;;
66559;SDS011;53413;49.878;8.142;2024-03-02T03:54:08;25.23;;;10.13;;
66559;SDS011;53413;49.878;8.142;2024-03-02T03:56:36;24.20;;;9.23;;
66559;SDS011;53413;49.878;8.142;2024-03-02T03:59:01;23.83;;;8.93;;
66559;SDS011;53413;49.878;8.142;2024-03-02T04:01:27;25.73;;;8.93;;
66559;SDS011;53413;49.878;8.142;2024-03-02T04:03:52;24.80;;;9.33;;
66559;SDS011;53413;49.878;8.142;2024-03-02T04:06:17;22.08;;;8.82;;
66559;SDS011;53413;49.878;8.142;2024-03-02T04:08:43;25.08;;;9.50;;
66559;SDS011;53413;49.878;8.142;2024-03-02T04:11:08;24.27;;;9.47;;
66559;SDS011;53413;49.878;8.142;2024-03-02T04:13:34;26.63;;;9.10;;
66559;SDS011;53413;49.878;8.142;2024-03-02T04:15:59;23.93;;;8.40;;
66559;SDS011;53413;49.878;8.142;2024-03-02T04:18:24;21.70;;;8.90;;
66559;SDS011;53413;49.878;8.142;2024-03-02T04:20:50;22.83;;;8.67;;
66559;SDS011;53413;49.878;8.142;2024-03-02T04:23:15;26.05;;;9.35;;
66559;SDS011;53413;49.878;8.142;2024-03-02T04:25:40;22.10;;;8.32;;
66559;SDS011;53413;49.878;8.142;2024-03-02T04:28:06;24.33;;;8.60;;
66559;SDS011;53413;49.878;8.142;2024-03-02T04:30:31;24.97;;;9.03;;
66559;SDS011;53413;49.878;8.142;2024-03-02T04:32:56;23.13;;;9.27;;
66559;SDS011;53413;49.878;8.142;2024-03-02T04:35:22;22.47;;;9.17;;
66559;SDS011;53413;49.878;8.142;2024-03-02T04:37:50;21.57;;;9.13;;
66559;SDS011;53413;49.878;8.142;2024-03-02T04:40:15;23.63;;;8.73;;
66559;SDS011;53413;49.878;8.142;2024-03-02T04:42:41;24.63;;;8.60;;
66559;SDS011;53413;49.878;8.142;2024-03-02T04:45:06;23.47;;;8.50;;
66559;SDS011;53413;49.878;8.142;2024-03-02T04:47:32;20.98;;;8.40;;
66559;SDS011;53413;49.878;8.142;2024-03-02T04:49:57;22.03;;;8.03;;
66559;SDS011;53413;49.878;8.142;2024-03-02T04:52:23;23.57;;;8.27;;
66559;SDS011;53413;49.878;8.142;2024-03-02T04:54:48;22.17;;;8.87;;
66559;SDS011;53413;49.878;8.142;2024-03-02T04:57:32;21.85;;;7.82;;
66559;SDS011;53413;49.878;8.142;2024-03-02T04:59:57;22.33;;;7.90;;
66559;SDS011;53413;49.878;8.142;2024-03-02T05:02:22;24.97;;;8.43;;
66559;SDS011;53413;49.878;8.142;2024-03-02T05:04:48;22.23;;;8.25;;
66559;SDS011;53413;49.878;8.142;2024-03-02T05:07:13;19.88;;;7.65;;
66559;SDS011;53413;49.878;8.142;2024-03-02T05:09:39;23.47;;;8.20;;
66559;SDS011;53413;49.878;8.142;2024-03-02T05:12:05;22.70;;;8.32;;
66559;SDS011;53413;49.878;8.142;2024-03-02T05:14:42;25.73;;;8.80;;
66559;SDS011;53413;49.878;8.142;2024-03-02T05:17:07;25.97;;;8.67;;
66559;SDS011;53413;49.878;8.142;2024-03-02T05:19:33;26.67;;;8.87;;
66559;SDS011;53413;49.878;8.142;2024-03-02T05:21:58;25.43;;;8.67;;
66559;SDS011;53413;49.878;8.142;2024-03-02T05:24:24;25.63;;;8.47;;
66559;SDS011;53413;49.878;8.142;2024-03-02T05:26:49;25.55;;;9.02;;
66559;SDS011;53413;49.878;8.142;2024-03-02T05:29:14;23.23;;;8.85;;
66559;SDS011;53413;49.878;8.142;2024-03-02T05:31:40;21.97;;;8.60;;
66559;SDS011;53413;49.878;8.142;2024-03-02T05:34:05;27.00;;;9.80;;
66559;SDS011;53413;49.878;8.142;2024-03-02T05:36:31;21.17;;;8.67;;
66559;SDS011;53413;49.878;8.142;2024-03-02T05:38:56;22.60;;;8.85;;
66559;SDS011;53413;49.878;8.142;2024-03-02T05:41:22;24.47;;;9.03;;
66559;SDS011;53413;49.878;8.142;2024-03-02T05:43:47;23.43;;;8.50;;
66559;SDS011;53413;49.878;8.142;2024-03-02T05:46:13;23.97;;;9.10;;
66559;SDS011;53413;49.878;8.142;2024-03-02T05:48:38;23.63;;;9.20;;
66559;SDS011;53413;49.878;8.142;2024-03-02T05:51:03;22.95;;;9.25;;
66559;SDS011;53413;49.878;8.142;2024-03-02T05:53:29;22.50;;;8.77;;
66559;SDS011;53413;49.878;8.142;2024-03-02T05:55:54;27.10;;;10.23;;
66559;SDS011;53413;49.878;8.142;2024-03-02T05:58:23;22.80;;;9.13;;
66559;SDS011;53413;49.878;8.142;2024-03-02T06:01:11;25.67;;;9.10;;
66559;SDS011;53413;49.878;8.142;2024-03-02T06:03:36;23.33;;;9.37;;
66559;SDS011;53413;49.878;8.142;2024-03-02T06:06:02;21.77;;;9.27;;
66559;SDS011;53413;49.878;8.142;2024-03-02T06:08:27;21.60;;;8.55;;
66559;SDS011;53413;49.878;8.142;2024-03-02T06:10:55;21.48;;;8.95;;
66559;SDS011;53413;49.878;8.142;2024-03-02T06:13:21;21.53;;;8.30;;
66559;SDS011;53413;49.878;8.142;2024-03-02T06:15:46;22.40;;;8.73;;
66559;SDS011;53413;49.878;8.142;2024-03-02T06:18:12;21.50;;;8.80;;
66559;SDS011;53413;49.878;8.142;2024-03-02T06:20:37;21.90;;;8.53;;
66559;SDS011;53413;49.878;8.142;2024-03-02T06:23:03;19.93;;;8.30;;
66559;SDS011;53413;49.878;8.142;2024-03-02T06:25:29;21.25;;;8.13;;
66559;SDS011;53413;49.878;8.142;2024-03-02T06:27:54;19.50;;;8.30;;
66559;SDS011;53413;49.878;8.142;2024-03-02T06:30:19;20.47;;;8.47;;
66559;SDS011;53413;49.878;8.142;2024-03-02T06:32:45;23.13;;;8.30;;
66559;SDS011;53413;49.878;8.142;2024-03-02T06:35:10;22.40;;;8.20;;
66559;SDS011;53413;49.878;8.142;2024-03-02T06:37:37;20.73;;;8.43;;
66559;SDS011;53413;49.878;8.142;2024-03-02T06:40:04;19.67;;;8.18;;
66559;SDS011;53413;49.878;8.142;2024-03-02T06:42:32;20.35;;;8.57;;
66559;SDS011;53413;49.878;8.142;2024-03-02T06:44:58;20.73;;;8.87;;
66559;SDS011;53413;49.878;8.142;2024-03-02T06:47:24;21.13;;;8.15;;
66559;SDS011;53413;49.878;8.142;2024-03-02T06:49:49;19.23;;;8.57;;
66559;SDS011;53413;49.878;8.142;2024-03-02T06:52:14;18.00;;;8.00;;
66559;SDS011;53413;49.878;8.142;2024-03-02T06:54:40;19.60;;;7.90;;
66559;SDS011;53413;49.878;8.142;2024-03-02T06:57:05;19.23;;;8.13;;
66559;SDS011;53413;49.878;8.142;2024-03-02T06:59:30;19.03;;;7.77;;
66559;SDS011;53413;49.878;8.142;2024-03-02T07:01:56;18.98;;;8.00;;
66559;SDS011;53413;49.878;8.142;2024-03-02T07:04:21;18.63;;;7.72;;
66559;SDS011;53413;49.878;8.142;2024-03-02T07:06:47;19.93;;;8.50;;
66559;SDS011;53413;49.878;8.142;2024-03-02T07:09:12;17.70;;;7.83;;
66559;SDS011;53413;49.878;8.142;2024-03-02T07:11:37;20.30;;;8.43;;
66559;SDS011;53413;49.878;8.142;2024-03-02T07:14:03;19.47;;;8.73;;
66559;SDS011;53413;49.878;8.142;2024-03-02T07:16:28;18.13;;;7.30;;
66559;SDS011;53413;49.878;8.142;2024-03-02T07:18:55;17.25;;;7.43;;
66559;SDS011;53413;49.878;8.142;2024-03-02T07:21:21;16.90;;;7.63;;
66559;SDS011;53413;49.878;8.142;2024-03-02T07:23:47;18.80;;;7.78;;
66559;SDS011;53413;49.878;8.142;2024-03-02T07:26:13;18.30;;;8.02;;
66559;SDS011;53413;49.878;8.142;2024-03-02T07:28:40;16.10;;;7.40;;
66559;SDS011;53413;49.878;8.142;2024-03-02T07:31:08;17.63;;;7.37;;
66559;SDS011;53413;49.878;8.142;2024-03-02T07:33:35;16.90;;;6.78;;
66559;SDS011;53413;49.878;8.142;2024-03-02T07:36:00;15.93;;;7.00;;
66559;SDS011;53413;49.878;8.142;2024-03-02T07:38:27;15.67;;;6.73;;
66559;SDS011;53413;49.878;8.142;2024-03-02T07:40:53;16.02;;;6.95;;
66559;SDS011;53413;49.878;8.142;2024-03-02T07:43:19;14.43;;;6.50;;
66559;SDS011;53413;49.878;8.142;2024-03-02T07:45:45;16.50;;;6.80;;
66559;SDS011;53413;49.878;8.142;2024-03-02T07:48:11;17.45;;;7.50;;
66559;SDS011;53413;49.878;8.142;2024-03-02T07:50:37;15.43;;;6.93;;
66559;SDS011;53413;49.878;8.142;2024-03-02T07:53:04;14.67;;;6.47;;
66559;SDS011;53413;49.878;8.142;2024-03-02T07:55:30;14.10;;;6.43;;
66559;SDS011;53413;49.878;8.142;2024-03-02T07:57:58;16.77;;;6.95;;
66559;SDS011;53413;49.878;8.142;2024-03-02T08:00:25;15.93;;;7.13;;
66559;SDS011;53413;49.878;8.142;2024-03-02T08:02:50;15.57;;;7.03;;
66559;SDS011;53413;49.878;8.142;2024-03-02T08:05:17;14.68;;;6.75;;
66559;SDS011;53413;49.878;8.142;2024-03-02T08:07:44;14.63;;;7.00;;
66559;SDS011;53413;49.878;8.142;2024-03-02T08:10:10;15.70;;;6.70;;
66559;SDS011;53413;49.878;8.142;2024-03-02T08:12:35;14.95;;;6.85;;
66559;SDS011;53413;49.878;8.142;2024-03-02T08:15:00;14.90;;;6.80;;
66559;SDS011;53413;49.878;8.142;2024-03-02T08:17:26;15.93;;;6.93;;
66559;SDS011;53413;49.878;8.142;2024-03-02T08:19:51;12.67;;;5.83;;
66559;SDS011;53413;49.878;8.142;2024-03-02T08:22:17;15.52;;;6.70;;
66559;SDS011;53413;49.878;8.142;2024-03-02T08:24:43;13.97;;;5.80;;
66559;SDS011;53413;49.878;8.142;2024-03-02T08:27:08;12.83;;;6.00;;
66559;SDS011;53413;49.878;8.142;2024-03-02T08:29:34;13.70;;;6.30;;
66559;SDS011;53413;49.878;8.142;2024-03-02T08:32:00;13.73;;;5.73;;
66559;SDS011;53413;49.878;8.142;2024-03-02T08:34:25;12.50;;;6.03;;
66559;SDS011;53413;49.878;8.142;2024-03-02T08:36:50;13.25;;;6.07;;
66559;SDS011;53413;49.878;8.142;2024-03-02T08:39:16;12.87;;;5.73;;
66559;SDS011;53413;49.878;8.142;2024-03-02T08:41:43;13.90;;;5.80;;
66559;SDS011;53413;49.878;8.142;2024-03-02T08:44:09;11.50;;;5.67;;
66559;SDS011;53413;49.878;8.142;2024-03-02T08:46:35;13.02;;;6.00;;
66559;SDS011;53413;49.878;8.142;2024-03-02T08:49:01;13.35;;;5.93;;
66559;SDS011;53413;49.878;8.142;2024-03-02T08:51:26;13.47;;;6.37;;
66559;SDS011;53413;49.878;8.142;2024-03-02T08:53:52;13.50;;;6.13;;
66559;SDS011;53413;49.878;8.142;2024-03-02T08:56:17;13.70;;;6.23;;
66559;SDS011;53413;49.878;8.142;2024-03-02T08:58:43;13.93;;;6.17;;
66559;SDS011;53413;49.878;8.142;2024-03-02T09:01:09;12.68;;;6.00;;
66559;SDS011;53413;49.878;8.142;2024-03-02T09:03:35;11.15;;;5.80;;
66559;SDS011;53413;49.878;8.142;2024-03-02T09:06:00;12.60;;;6.13;;
66559;SDS011;53413;49.878;8.142;2024-03-02T09:08:26;10.57;;;5.55;;
66559;SDS011;53413;49.878;8.142;2024-03-02T09:10:51;11.57;;;5.87;;
66559;SDS011;53413;49.878;8.142;2024-03-02T09:13:18;12.57;;;6.20;;
66559;SDS011;53413;49.878;8.142;2024-03-02T09:15:43;15.57;;;6.25;;
66559;SDS011;53413;49.878;8.142;2024-03-02T09:18:09;12.33;;;5.70;;
66559;SDS011;53413;49.878;8.142;2024-03-02T09:20:34;11.65;;;5.93;;
66559;SDS011;53413;49.878;8.142;2024-03-02T09:23:00;12.07;;;6.00;;
66559;SDS011;53413;49.878;8.142;2024-03-02T09:25:25;13.47;;;5.70;;
66559;SDS011;53413;49.878;8.142;2024-03-02T09:27:51;13.93;;;6.17;;
66559;SDS011;53413;49.878;8.142;2024-03-02T09:30:16;12.37;;;5.73;;
66559;SDS011;53413;49.878;8.142;2024-03-02T09:32:41;13.57;;;6.60;;
66559;SDS011;53413;49.878;8.142;2024-03-02T09:35:07;11.93;;;5.93;;
66559;SDS011;53413;49.878;8.142;2024-03-02T09:37:32;13.27;;;6.10;;
66559;SDS011;53413;49.878;8.142;2024-03-02T09:39:58;13.07;;;6.27;;
66559;SDS011;53413;49.878;8.142;2024-03-02T09:42:24;15.02;;;6.13;;
66559;SDS011;53413;49.878;8.142;2024-03-02T09:44:50;14.20;;;6.30;;
66559;SDS011;53413;49.878;8.142;2024-03-02T09:47:17;12.57;;;6.28;;
66559;SDS011;53413;49.878;8.142;2024-03-02T09:49:42;12.63;;;6.10;;
66559;SDS011;53413;49.878;8.142;2024-03-02T09:52:08;13.98;;;6.18;;
66559;SDS011;53413;49.878;8.142;2024-03-02T09:54:35;12.43;;;6.10;;
66559;SDS011;53413;49.878;8.142;2024-03-02T09:57:01;13.57;;;6.28;;
66559;SDS011;53413;49.878;8.142;2024-03-02T09:59:27;13.47;;;6.17;;
66559;SDS011;53413;49.878;8.142;2024-03-02T10:04:26;12.90;;;5.85;;
66559;SDS011;53413;49.878;8.142;2024-03-02T10:09:37;12.43;;;6.00;;
66559;SDS011;53413;49.878;8.142;2024-03-02T10:12:03;13.83;;;6.00;;
66559;SDS011;53413;49.878;8.142;2024-03-02T10:14:30;12.85;;;6.05;;
66559;SDS011;53413;49.878;8.142;2024-03-02T10:16:55;12.37;;;5.70;;
66559;SDS011;53413;49.878;8.142;2024-03-02T10:19:27;11.25;;;5.18;;
66559;SDS011;53413;49.878;8.142;2024-03-02T10:21:57;11.60;;;5.65;;
66559;SDS011;53413;49.878;8.142;2024-03-02T10:24:23;11.40;;;5.30;;
66559;SDS011;53413;49.878;8.142;2024-03-02T10:26:50;11.88;;;6.10;;
66559;SDS011;53413;49.878;8.142;2024-03-02T10:29:16;12.50;;;6.00;;
66559;SDS011;53413;49.878;8.142;2024-03-02T10:31:42;13.20;;;6.73;;
66559;SDS011;53413;49.878;8.142;2024-03-02T10:34:11;13.88;;;6.88;;
66559;SDS011;53413;49.878;8.142;2024-03-02T10:36:37;14.45;;;6.75;;
66559;SDS011;53413;49.878;8.142;2024-03-02T10:39:05;14.75;;;7.22;;
66559;SDS011;53413;49.878;8.142;2024-03-02T10:41:32;14.18;;;6.80;;
66559;SDS011;53413;49.878;8.142;2024-03-02T10:44:05;14.50;;;6.70;;
66559;SDS011;53413;49.878;8.142;2024-03-02T10:46:32;13.82;;;7.10;;
66559;SDS011;53413;49.878;8.142;2024-03-02T10:48:59;13.88;;;7.15;;
66559;SDS011;53413;49.878;8.142;2024-03-02T10:51:25;15.55;;;7.13;;
66559;SDS011;53413;49.878;8.142;2024-03-02T10:53:52;14.32;;;7.03;;
66559;SDS011;53413;49.878;8.142;2024-03-02T10:56:21;13.00;;;6.70;;
66559;SDS011;53413;49.878;8.142;2024-03-02T10:59:03;12.98;;;6.53;;
66559;SDS011;53413;49.878;8.142;2024-03-02T11:01:41;15.40;;;6.88;;
66559;SDS011;53413;49.878;8.142;2024-03-02T11:04:08;14.18;;;7.00;;
66559;SDS011;53413;49.878;8.142;2024-03-02T11:06:37;13.75;;;6.80;;
66559;SDS011;53413;49.878;8.142;2024-03-02T11:09:07;15.37;;;6.83;;
66559;SDS011;53413;49.878;8.142;2024-03-02T11:11:37;15.07;;;6.90;;
66559;SDS011;53413;49.878;8.142;2024-03-02T11:14:07;14.48;;;7.22;;
66559;SDS011;53413;49.878;8.142;2024-03-02T11:16:38;13.45;;;6.60;;
66559;SDS011;53413;49.878;8.142;2024-03-02T11:19:08;14.27;;;6.60;;
66559;SDS011;53413;49.878;8.142;2024-03-02T11:21:36;13.87;;;6.80;;
66559;SDS011;53413;49.878;8.142;2024-03-02T11:26:46;13.73;;;6.80;;
66559;SDS011;53413;49.878;8.142;2024-03-02T11:32:03;11.25;;;5.68;;
66559;SDS011;53413;49.878;8.142;2024-03-02T11:34:36;12.55;;;6.28;;
66559;SDS011;53413;49.878;8.142;2024-03-02T11:37:04;13.73;;;6.43;;
66559;SDS011;53413;49.878;8.142;2024-03-02T11:39:30;12.73;;;6.40;;
66559;SDS011;53413;49.878;8.142;2024-03-02T11:41:57;13.93;;;6.25;;
66559;SDS011;53413;49.878;8.142;2024-03-02T11:44:24;12.73;;;5.78;;
66559;SDS011;53413;49.878;8.142;2024-03-02T11:46:52;12.43;;;6.25;;
66559;SDS011;53413;49.878;8.142;2024-03-02T11:49:31;11.90;;;6.20;;
66559;SDS011;53413;49.878;8.142;2024-03-02T11:52:02;12.50;;;6.32;;
66559;SDS011;53413;49.878;8.142;2024-03-02T11:54:29;14.77;;;6.60;;
66559;SDS011;53413;49.878;8.142;2024-03-02T11:56:59;13.80;;;6.60;;
66559;SDS011;53413;49.878;8.142;2024-03-02T11:59:27;15.38;;;6.60;;
66559;SDS011;53413;49.878;8.142;2024-03-02T12:01:54;12.63;;;6.80;;
66559;SDS011;53413;49.878;8.142;2024-03-02T12:04:20;13.35;;;6.63;;
66559;SDS011;53413;49.878;8.142;2024-03-02T12:06:49;15.10;;;6.53;;
66559;SDS011;53413;49.878;8.142;2024-03-02T12:09:20;12.80;;;5.85;;
66559;SDS011;53413;49.878;8.142;2024-03-02T12:11:46;14.03;;;6.90;;
66559;SDS011;53413;49.878;8.142;2024-03-02T12:14:11;14.48;;;6.97;;
66559;SDS011;53413;49.878;8.142;2024-03-02T12:16:43;14.25;;;6.20;;
66559;SDS011;53413;49.878;8.142;2024-03-02T12:19:09;12.77;;;6.00;;
66559;SDS011;53413;49.878;8.142;2024-03-02T12:21:34;14.43;;;6.00;;
66559;SDS011;53413;49.878;8.142;2024-03-02T12:24:01;11.45;;;4.95;;
66559;SDS011;53413;49.878;8.142;2024-03-02T12:26:26;10.80;;;4.87;;
66559;SDS011;53413;49.878;8.142;2024-03-02T12:28:53;10.45;;;4.95;;
66559;SDS011;53413;49.878;8.142;2024-03-02T12:31:19;11.57;;;5.20;;
66559;SDS011;53413;49.878;8.142;2024-03-02T12:33:44;10.63;;;5.13;;
66559;SDS011;53413;49.878;8.142;2024-03-02T12:36:11;11.57;;;5.07;;
66559;SDS011;53413;49.878;8.142;2024-03-02T12:38:38;12.27;;;5.28;;
66559;SDS011;53413;49.878;8.142;2024-03-02T12:41:08;11.48;;;5.45;;
66559;SDS011;53413;49.878;8.142;2024-03-02T12:43:34;12.43;;;5.40;;
66559;SDS011;53413;49.878;8.142;2024-03-02T12:45:59;12.27;;;5.50;;
66559;SDS011;53413;49.878;8.142;2024-03-02T12:48:25;11.50;;;5.50;;
66559;SDS011;53413;49.878;8.142;2024-03-02T12:50:50;13.27;;;5.68;;
66559;SDS011;53413;49.878;8.142;2024-03-02T12:53:15;10.88;;;5.07;;
66559;SDS011;53413;49.878;8.142;2024-03-02T12:55:43;10.37;;;4.80;;
66559;SDS011;53413;49.878;8.142;2024-03-02T12:58:16;9.95;;;4.70;;
66559;SDS011;53413;49.878;8.142;2024-03-02T13:00:45;8.95;;;4.20;;
66559;SDS011;53413;49.878;8.142;2024-03-02T13:03:11;9.93;;;4.57;;
66559;SDS011;53413;49.878;8.142;2024-03-02T13:05:36;9.03;;;3.97;;
66559;SDS011;53413;49.878;8.142;2024-03-02T13:08:02;13.10;;;4.00;;
66559;SDS011;53413;49.878;8.142;2024-03-02T13:10:29;8.88;;;4.10;;
66559;SDS011;53413;49.878;8.142;2024-03-02T13:12:55;9.30;;;3.80;;
66559;SDS011;53413;49.878;8.142;2024-03-02T13:15:21;9.38;;;3.40;;
66559;SDS011;53413;49.878;8.142;2024-03-02T13:17:47;8.95;;;3.63;;
66559;SDS011;53413;49.878;8.142;2024-03-02T13:20:12;10.07;;;3.80;;
66559;SDS011;53413;49.878;8.142;2024-03-02T13:22:39;8.10;;;3.70;;
66559;SDS011;53413;49.878;8.142;2024-03-02T13:25:04;7.43;;;3.30;;
66559;SDS011;53413;49.878;8.142;2024-03-02T13:27:30;8.40;;;3.43;;
66559;SDS011;53413;49.878;8.142;2024-03-02T13:29:57;6.40;;;2.53;;
66559;SDS011;53413;49.878;8.142;2024-03-02T13:32:22;6.97;;;2.80;;
66559;SDS011;53413;49.878;8.142;2024-03-02T13:34:49;10.30;;;3.40;;
66559;SDS011;53413;49.878;8.142;2024-03-02T13:37:14;6.35;;;2.80;;
66559;SDS011;53413;49.878;8.142;2024-03-02T13:39:40;6.00;;;2.47;;
66559;SDS011;53413;49.878;8.142;2024-03-02T13:42:07;6.87;;;2.67;;
66559;SDS011;53413;49.878;8.142;2024-03-02T13:44:38;8.18;;;2.90;;
66559;SDS011;53413;49.878;8.142;2024-03-02T13:47:04;8.05;;;3.00;;
66559;SDS011;53413;49.878;8.142;2024-03-02T13:49:29;7.10;;;2.70;;
66559;SDS011;53413;49.878;8.142;2024-03-02T13:52:07;6.78;;;3.00;;
66559;SDS011;53413;49.878;8.142;2024-03-02T13:54:38;7.60;;;3.00;;
66559;SDS011;53413;49.878;8.142;2024-03-02T13:57:07;7.20;;;2.53;;
66559;SDS011;53413;49.878;8.142;2024-03-02T13:59:33;5.60;;;2.25;;
66559;SDS011;53413;49.878;8.142;2024-03-02T14:02:00;6.38;;;2.50;;
66559;SDS011;53413;49.878;8.142;2024-03-02T14:04:26;4.88;;;1.90;;
66559;SDS011;53413;49.878;8.142;2024-03-02T14:06:51;5.50;;;2.03;;
66559;SDS011;53413;49.878;8.142;2024-03-02T14:09:18;4.82;;;1.92;;
66559;SDS011;53413;49.878;8.142;2024-03-02T14:11:45;5.97;;;2.17;;
66559;SDS011;53413;49.878;8.142;2024-03-02T14:14:10;4.70;;;1.90;;
66559;SDS011;53413;49.878;8.142;2024-03-02T14:16:36;6.10;;;1.97;;
66559;SDS011;53413;49.878;8.142;2024-03-02T14:19:01;4.93;;;1.90;;
66559;SDS011;53413;49.878;8.142;2024-03-02T14:21:29;4.47;;;1.80;;
66559;SDS011;53413;49.878;8.142;2024-03-02T14:23:54;5.00;;;1.90;;
66559;SDS011;53413;49.878;8.142;2024-03-02T14:26:20;4.53;;;1.70;;
66559;SDS011;53413;49.878;8.142;2024-03-02T14:28:46;4.75;;;1.73;;
66559;SDS011;53413;49.878;8.142;2024-03-02T14:31:11;4.43;;;1.60;;
66559;SDS011;53413;49.878;8.142;2024-03-02T14:33:37;4.10;;;1.37;;
66559;SDS011;53413;49.878;8.142;2024-03-02T14:36:02;4.57;;;1.60;;
66559;SDS011;53413;49.878;8.142;2024-03-02T14:38:29;4.95;;;1.70;;
66559;SDS011;53413;49.878;8.142;2024-03-02T14:40:54;5.50;;;1.70;;
66559;SDS011;53413;49.878;8.142;2024-03-02T14:43:20;5.00;;;1.57;;
66559;SDS011;53413;49.878;8.142;2024-03-02T14:45:45;5.30;;;1.80;;
66559;SDS011;53413;49.878;8.142;2024-03-02T14:48:11;5.33;;;1.90;;